CYOW/YOW METAR and TAF weather

Enter ICAO airport designator
Station Type Date Time Source
CYOW METAR 2019/12/07 10:00 UTC NOAA

CYOW 071000Z 32004KT 15SM FEW045 OVC079 M08/M11 A3024 RMK SC1AC8 SC TR SLP250


Station Type Date Time Source
CYOW Decoded METAR 2019/12/07 10:00 UTC NOAA

Ottawa Int'L. Ont., Canada (CYOW) 45-19N 075-40W 114M
Dec 07, 2019 - 05:00 AM EST / 2019.12.07 1000 UTC
Wind: from the NW (320 degrees) at 5 MPH (4 KT):0
Visibility: 15 mile(s):0
Sky conditions: overcast
Temperature: 17 F (-8 C)
Windchill: 8 F (-13 C):1
Dew Point: 12 F (-11 C)
Relative Humidity: 78%
Pressure (altimeter): 30.24 in. Hg (1024 hPa)
ob: CYOW 071000Z 32004KT 15SM FEW045 OVC079 M08/M11 A3024 RMK SC1AC8 SC TR SLP250
cycle: 10

Station Type Date Time Source
CYOW TAF 2019/12/07 09:42 UTC NOAA

TAF CYOW 070839Z 0709/0806 30005KT P6SM SCT040 BKN070
TEMPO 0709/0712 P6SM -SN BKN020 BKN070
FM071200 29006KT P6SM SCT030 BKN050
FM071900 28007KT P6SM FEW030
BECMG 0722/0724 VRB03KT
RMK NXT FCST BY 071200Z

Example: see airport list